Main page
METAR-TAF:

METAR-TAF

Airports :

Pisa International Airport

Pisa, Italy

latitude: 43-41N, longitude: 010-23E, elevation: 2 m

Current weather observation

The report was made 40 minutes ago, at 08:15 UTC
Wind 3 kt from the East/Southeast
Temperature 8°C
Humidity 93%
Pressure 1030 hPa
Visibility 10 km or more
no clouds below 1500 m and no cumulonimbus

METAR: LIRP 220815Z 12003KT CAVOK 08/07 Q1030 NOSIG

Time: 09:55 (08:55 UTC)

Forecast

The report was made 3 hours and 55 minutes ago, at 05:00 UTC
Forecast valid from 22 at 06 UTC to 23 at 06 UTC
Wind 6 kt from the East/Southeast
Visibility 10 km or more
Few clouds at a height of 5000 ft
Temporary
from 23 at 00 UTC to 23 at 06 UTC
Visibility: 4000 m
Broken clouds at a height of 1500 ft
mist
Probability 40% :
Temporary
from 23 at 02 UTC to 23 at 06 UTC
Visibility: 0800 m
Broken clouds at a height of 200 ft
fog

TAF: LIRP 220500Z 2206/2306 12006KT 9999 FEW050 TEMPO 2300/2306 4000 BR BKN015 PROB40 TEMPO 2302/2306 0800 FG BKN002

Weather observations and forecasts of more than 4000 airports (METAR and TAF reports).

The available stations are represented by yellow and red dots on the map.

Hover mouse over dot to see the name of the station.

Then click to see weather observations and forecasts.

To change the map : click on the green buttons with a black cross to zoom in, on the green button with a dash to zoom out, or on the green arrows for adjacent maps.


METAR-TAF: